createdAt,value
2023-04-14T00:00:10.028Z,15.06
2023-04-14T00:02:38.482Z,15.11
2023-04-14T00:05:08.315Z,15.22
2023-04-14T00:07:36.677Z,15.06
2023-04-14T00:10:05.345Z,15.10
2023-04-14T00:12:34.992Z,14.71
2023-04-14T00:15:03.346Z,14.91
2023-04-14T00:17:32.392Z,15.32
2023-04-14T00:20:00.782Z,14.68
2023-04-14T00:22:29.072Z,14.62
2023-04-14T00:24:57.471Z,14.93
2023-04-14T00:27:25.875Z,13.98
2023-04-14T00:29:55.548Z,14.28
2023-04-14T00:32:23.843Z,14.47
2023-04-14T00:34:52.129Z,14.33
2023-04-14T00:37:20.493Z,14.58
2023-04-14T00:39:48.723Z,14.45
2023-04-14T00:42:17.014Z,14.69
2023-04-14T00:44:47.369Z,15.24
2023-04-14T00:47:17.313Z,14.83
2023-04-14T00:49:45.981Z,14.87
2023-04-14T00:52:14.218Z,14.54
2023-04-14T00:54:42.500Z,14.37
2023-04-14T00:57:10.988Z,14.66
2023-04-14T00:59:39.342Z,14.46
2023-04-14T01:02:07.781Z,14.05
2023-04-14T01:04:51.900Z,14.62
2023-04-14T01:07:21.844Z,14.25
2023-04-14T01:09:50.455Z,14.46
2023-04-14T01:12:26.206Z,14.58
2023-04-14T01:15:04.536Z,14.68
2023-04-14T01:17:36.850Z,14.39
2023-04-14T01:20:14.585Z,14.24
2023-04-14T01:22:48.515Z,14.58
2023-04-14T01:25:42.949Z,14.87
2023-04-14T01:28:17.278Z,14.36
2023-04-14T01:31:00.867Z,14.69
2023-04-14T01:33:31.698Z,14.35
2023-04-14T01:36:02.207Z,14.73
2023-04-14T01:38:36.018Z,14.66
2023-04-14T01:41:07.650Z,14.49
2023-04-14T01:43:39.061Z,14.57
2023-04-14T01:46:08.723Z,14.34
2023-04-14T01:48:39.560Z,14.06
2023-04-14T01:51:08.894Z,14.21
2023-04-14T01:53:39.081Z,14.28
2023-04-14T01:56:09.208Z,14.66
2023-04-14T01:58:38.520Z,14.51
2023-04-14T02:01:07.922Z,14.53
2023-04-14T02:03:38.549Z,14.68
2023-04-14T02:06:07.229Z,14.25
2023-04-14T02:08:37.457Z,14.27
2023-04-14T02:11:06.454Z,14.50
2023-04-14T02:13:36.490Z,14.76
2023-04-14T02:16:07.409Z,14.77
2023-04-14T02:18:38.217Z,14.59
2023-04-14T02:21:07.263Z,14.48
2023-04-14T02:23:35.602Z,14.41
2023-04-14T02:26:09.714Z,14.28
2023-04-14T02:28:43.077Z,13.85
2023-04-14T02:31:14.247Z,14.17
2023-04-14T02:33:45.024Z,14.09
2023-04-14T02:36:17.349Z,14.01
2023-04-14T02:38:48.046Z,14.64
2023-04-14T02:41:21.546Z,14.61
2023-04-14T02:43:52.873Z,14.37
2023-04-14T02:46:23.227Z,14.31
2023-04-14T02:48:53.598Z,13.81
2023-04-14T02:51:22.868Z,13.91
2023-04-14T02:53:51.594Z,14.28
2023-04-14T02:56:20.139Z,14.05
2023-04-14T02:58:49.162Z,14.44
2023-04-14T03:01:17.661Z,14.15
2023-04-14T03:03:46.076Z,13.92
2023-04-14T03:06:16.630Z,14.29
2023-04-14T03:08:45.475Z,14.71
2023-04-14T03:11:15.479Z,14.15
2023-04-14T03:13:44.755Z,14.39
2023-04-14T03:16:13.416Z,14.10
2023-04-14T03:18:42.091Z,14.45
2023-04-14T03:21:10.542Z,14.22
2023-04-14T03:23:41.196Z,14.11
2023-04-14T03:26:09.317Z,14.72
2023-04-14T03:28:38.690Z,13.80
2023-04-14T03:31:08.953Z,14.26
2023-04-14T03:33:38.737Z,14.29
2023-04-14T03:36:08.554Z,14.29
2023-04-14T03:38:37.119Z,14.32
2023-04-14T03:41:09.663Z,14.09
2023-04-14T03:43:38.777Z,14.27
2023-04-14T03:46:07.587Z,14.36
2023-04-14T03:48:42.391Z,14.23
2023-04-14T03:51:13.191Z,14.20
2023-04-14T03:53:42.148Z,14.18
2023-04-14T03:56:13.339Z,14.54
2023-04-14T03:58:42.284Z,15.11
2023-04-14T04:01:10.756Z,15.10
2023-04-14T04:03:41.024Z,15.06
2023-04-14T04:06:09.697Z,15.23
2023-04-14T04:08:38.481Z,15.22
2023-04-14T04:11:07.200Z,15.60
2023-04-14T04:13:38.050Z,15.27
2023-04-14T04:16:08.470Z,15.74
2023-04-14T04:18:39.184Z,15.86
2023-04-14T04:21:07.319Z,15.52
2023-04-14T04:23:36.070Z,15.47
2023-04-14T04:26:04.414Z,15.60
2023-04-14T04:28:32.901Z,15.61
2023-04-14T04:31:06.293Z,15.98
2023-04-14T04:33:35.610Z,15.34
2023-04-14T04:36:05.378Z,16.07
2023-04-14T04:38:33.689Z,16.30
2023-04-14T04:41:02.007Z,15.79
2023-04-14T04:43:30.304Z,16.11
2023-04-14T04:46:15.493Z,16.55
2023-04-14T04:48:43.763Z,16.29
2023-04-14T04:51:11.977Z,16.06
2023-04-14T04:53:40.304Z,16.39
2023-04-14T04:56:09.276Z,15.94
2023-04-14T04:58:37.598Z,16.12
2023-04-14T05:01:10.423Z,16.15
2023-04-14T05:03:39.062Z,16.36
2023-04-14T05:06:07.546Z,16.98
2023-04-14T05:08:36.014Z,16.52
2023-04-14T05:11:04.365Z,16.09
2023-04-14T05:13:32.981Z,16.00
2023-04-14T05:16:05.445Z,15.81
2023-04-14T05:18:36.346Z,16.40
2023-04-14T05:21:04.936Z,15.78
2023-04-14T05:23:34.266Z,15.75
2023-04-14T05:26:22.394Z,16.27
2023-04-14T05:28:50.890Z,16.13
2023-04-14T05:31:20.196Z,16.17
2023-04-14T05:33:49.860Z,15.98
2023-04-14T05:36:18.142Z,16.54
2023-04-14T05:38:46.549Z,16.17
2023-04-14T05:41:14.772Z,15.96
2023-04-14T05:43:43.035Z,15.55
2023-04-14T05:46:11.341Z,15.40
2023-04-14T05:48:39.747Z,15.52
2023-04-14T05:51:09.348Z,15.87
2023-04-14T05:53:37.668Z,16.64
2023-04-14T05:56:06.496Z,15.66
2023-04-14T05:58:34.724Z,15.68
2023-04-14T06:01:04.028Z,15.39
2023-04-14T06:03:32.879Z,15.20
2023-04-14T06:06:01.270Z,15.19
2023-04-14T06:08:31.329Z,15.85
2023-04-14T06:10:59.647Z,16.03
2023-04-14T06:13:31.159Z,16.07
2023-04-14T06:16:00.870Z,15.62
2023-04-14T06:18:29.196Z,15.19
2023-04-14T06:20:57.450Z,15.26
2023-04-14T06:23:26.805Z,14.96
2023-04-14T06:25:57.866Z,14.85
2023-04-14T06:28:26.564Z,15.03
2023-04-14T06:30:54.990Z,14.96
2023-04-14T06:33:23.886Z,15.23
2023-04-14T06:35:52.156Z,15.24
2023-04-14T06:38:20.725Z,16.12
2023-04-14T06:40:50.293Z,15.65
2023-04-14T06:43:21.520Z,15.74
2023-04-14T06:45:50.994Z,16.06
2023-04-14T06:48:19.462Z,16.12
2023-04-14T06:50:54.669Z,15.53
2023-04-14T06:53:23.069Z,15.93
2023-04-14T06:55:59.003Z,16.06
2023-04-14T06:58:29.750Z,15.25
2023-04-14T07:00:58.412Z,15.62
2023-04-14T07:03:27.503Z,16.29
2023-04-14T07:05:55.853Z,16.37
2023-04-14T07:08:24.116Z,16.15
2023-04-14T07:11:00.501Z,16.70
2023-04-14T07:13:30.519Z,16.94
2023-04-14T07:15:59.343Z,16.32
2023-04-14T07:18:27.773Z,17.03
2023-04-14T07:20:56.344Z,16.97
2023-04-14T07:23:24.682Z,17.02
2023-04-14T07:25:53.503Z,16.98
2023-04-14T07:28:22.070Z,16.94
2023-04-14T07:30:52.699Z,16.94
2023-04-14T07:33:22.364Z,17.05
2023-04-14T07:36:01.318Z,17.06
2023-04-14T07:38:31.108Z,17.00
2023-04-14T07:40:59.387Z,17.22
2023-04-14T07:43:27.920Z,16.85
2023-04-14T07:45:57.675Z,16.95
2023-04-14T07:48:26.136Z,16.79
2023-04-14T07:50:54.974Z,16.91
2023-04-14T07:53:23.342Z,16.77
2023-04-14T07:55:51.569Z,16.58
2023-04-14T07:58:19.923Z,16.87
2023-04-14T08:00:48.182Z,16.89
2023-04-14T08:03:18.266Z,16.31
2023-04-14T08:05:46.740Z,16.50
2023-04-14T08:08:15.468Z,16.97
2023-04-14T08:10:43.767Z,16.60
2023-04-14T08:13:12.035Z,16.57
2023-04-14T08:15:40.374Z,16.75
2023-04-14T08:18:08.706Z,16.52
2023-04-14T08:20:38.580Z,16.64
2023-04-14T08:23:06.815Z,16.57
2023-04-14T08:25:35.150Z,16.58
2023-04-14T08:28:03.540Z,16.51
2023-04-14T08:30:32.264Z,16.50
2023-04-14T08:33:00.570Z,16.26
2023-04-14T08:35:35.509Z,16.45
2023-04-14T08:38:10.109Z,16.42
2023-04-14T08:40:40.437Z,17.27
2023-04-14T08:43:08.933Z,16.74
2023-04-14T08:45:37.564Z,16.64
2023-04-14T08:48:06.789Z,16.49
2023-04-14T08:50:39.004Z,16.65
2023-04-14T08:53:11.052Z,16.48
2023-04-14T08:55:41.639Z,17.03
2023-04-14T08:58:10.817Z,16.49
2023-04-14T09:00:40.004Z,16.10
2023-04-14T09:03:09.441Z,15.99
2023-04-14T09:05:38.323Z,16.34
2023-04-14T09:08:06.819Z,16.82
2023-04-14T09:10:37.047Z,16.64
2023-04-14T09:13:06.663Z,16.36
2023-04-14T09:15:34.963Z,16.54
2023-04-14T09:18:03.414Z,16.34
2023-04-14T09:20:37.400Z,16.96
2023-04-14T09:23:08.840Z,17.27
2023-04-14T09:25:39.392Z,16.69
2023-04-14T09:28:07.740Z,16.17
2023-04-14T09:30:36.458Z,16.93
2023-04-14T09:33:08.116Z,16.80
2023-04-14T09:35:45.161Z,17.39
2023-04-14T09:38:13.428Z,17.53
2023-04-14T09:40:45.038Z,17.64
2023-04-14T09:43:26.979Z,17.11
2023-04-14T09:45:56.309Z,17.65
2023-04-14T09:48:25.729Z,18.16
2023-04-14T09:50:58.693Z,18.26
2023-04-14T09:53:28.432Z,18.71
2023-04-14T09:55:59.721Z,17.72
2023-04-14T09:58:31.237Z,17.35
2023-04-14T10:01:00.517Z,17.74
2023-04-14T10:03:38.904Z,18.17
2023-04-14T10:06:10.955Z,17.93
2023-04-14T10:08:41.051Z,17.32
2023-04-14T10:11:17.904Z,17.00
2023-04-14T10:13:46.922Z,17.54
2023-04-14T10:16:15.657Z,17.44
2023-04-14T10:18:44.223Z,17.24
2023-04-14T10:21:12.589Z,17.08
2023-04-14T10:23:41.860Z,17.08
2023-04-14T10:26:11.961Z,17.13
2023-04-14T10:28:44.657Z,17.23
2023-04-14T10:31:16.232Z,17.30
2023-04-14T10:33:44.634Z,17.71
2023-04-14T10:36:13.325Z,17.49
2023-04-14T10:38:43.500Z,17.53
2023-04-14T10:41:12.697Z,17.83
2023-04-14T10:43:42.358Z,17.94
2023-04-14T10:46:11.356Z,18.02
2023-04-14T10:48:41.328Z,17.68
2023-04-14T10:51:11.743Z,18.39
2023-04-14T10:53:45.059Z,17.95
2023-04-14T10:56:13.552Z,19.53
2023-04-14T10:58:45.553Z,19.16
2023-04-14T11:01:27.113Z,18.86
2023-04-14T11:03:56.352Z,18.46
2023-04-14T11:06:50.125Z,18.43
2023-04-14T11:09:25.476Z,19.31
2023-04-14T11:11:55.608Z,18.55
2023-04-14T11:14:28.760Z,18.62
2023-04-14T11:17:04.126Z,19.26
2023-04-14T11:19:34.177Z,19.90
2023-04-14T11:22:02.451Z,19.94
2023-04-14T11:24:30.744Z,19.26
2023-04-14T11:27:00.138Z,18.68
2023-04-14T11:29:29.734Z,18.33
2023-04-14T11:32:05.789Z,18.80
2023-04-14T11:34:35.051Z,19.08
2023-04-14T11:37:04.274Z,19.69
2023-04-14T11:39:33.061Z,19.86
2023-04-14T11:42:01.320Z,19.44
2023-04-14T11:44:30.955Z,19.45
2023-04-14T11:46:59.261Z,18.74
2023-04-14T11:49:36.653Z,18.97
2023-04-14T11:52:08.841Z,19.83
2023-04-14T11:54:37.970Z,19.95
2023-04-14T11:57:12.737Z,19.25
2023-04-14T11:59:44.050Z,19.47
2023-04-14T12:02:17.546Z,18.89
2023-04-14T12:04:46.902Z,19.26
2023-04-14T12:07:17.071Z,19.20
2023-04-14T12:09:46.899Z,19.05
2023-04-14T12:12:17.213Z,18.86
2023-04-14T12:14:48.036Z,19.53
2023-04-14T12:17:18.819Z,19.50
2023-04-14T12:19:47.306Z,19.29
2023-04-14T12:22:16.164Z,19.40
2023-04-14T12:24:44.840Z,19.52
2023-04-14T12:27:15.096Z,19.59
2023-04-14T12:29:45.199Z,20.37
2023-04-14T12:32:15.422Z,20.66
2023-04-14T12:34:54.299Z,19.93
2023-04-14T12:37:26.035Z,20.23
2023-04-14T12:39:58.154Z,20.91
2023-04-14T12:42:26.710Z,20.62
2023-04-14T12:44:56.252Z,20.03
2023-04-14T12:47:29.920Z,20.41
2023-04-14T12:49:59.375Z,20.55
2023-04-14T12:52:35.567Z,19.78
2023-04-14T12:55:04.824Z,19.64
2023-04-14T12:57:33.631Z,20.33
2023-04-14T13:00:02.362Z,20.70
2023-04-14T13:05:19.116Z,20.80
2023-04-14T13:07:47.419Z,21.17
2023-04-14T13:10:15.706Z,21.87
2023-04-14T13:12:44.077Z,22.04
2023-04-14T13:16:10.442Z,21.56
2023-04-14T13:18:03.219Z,21.00
2023-04-14T13:20:31.716Z,20.88
2023-04-14T13:23:00.053Z,20.86
2023-04-14T13:25:28.388Z,21.93
2023-04-14T13:27:56.770Z,21.30
2023-04-14T13:30:25.034Z,21.21
2023-04-14T13:32:53.530Z,21.30
2023-04-14T13:35:23.322Z,20.91
2023-04-14T13:37:51.565Z,20.67
2023-04-14T13:40:19.826Z,20.92
2023-04-14T13:42:48.093Z,20.96
2023-04-14T13:45:17.114Z,20.66
2023-04-14T13:47:48.291Z,19.98
2023-04-14T13:50:17.698Z,19.83
2023-04-14T13:52:47.374Z,19.58
2023-04-14T13:55:15.673Z,18.87
2023-04-14T13:57:43.876Z,18.21
2023-04-14T14:00:13.452Z,17.47
2023-04-14T14:02:41.914Z,16.74
2023-04-14T14:05:11.750Z,16.81
2023-04-14T14:07:40.191Z,15.97
2023-04-14T14:10:10.988Z,17.12
2023-04-14T14:12:39.391Z,16.84
2023-04-14T14:15:08.840Z,16.46
2023-04-14T14:17:38.089Z,16.04
2023-04-14T14:20:07.631Z,15.82
2023-04-14T14:22:35.903Z,15.70
2023-04-14T14:25:18.502Z,15.94
2023-04-14T14:27:51.924Z,15.36
2023-04-14T14:30:20.441Z,16.25
2023-04-14T14:32:48.712Z,16.94
2023-04-14T14:35:17.300Z,16.58
2023-04-14T14:37:45.971Z,16.81
2023-04-14T14:40:14.333Z,16.93
2023-04-14T14:42:42.644Z,17.52
2023-04-14T14:45:13.428Z,18.63
2023-04-14T14:47:41.998Z,18.91
2023-04-14T14:50:10.680Z,19.61
2023-04-14T14:52:39.012Z,19.70
2023-04-14T14:55:08.478Z,20.15
2023-04-14T14:57:36.671Z,20.67
2023-04-14T15:00:07.732Z,20.59
2023-04-14T15:02:38.545Z,19.48
2023-04-14T15:05:08.271Z,19.99
2023-04-14T15:07:36.552Z,19.77
2023-04-14T15:10:05.786Z,19.68
2023-04-14T15:12:34.354Z,19.56
2023-04-14T15:15:02.718Z,19.73
2023-04-14T15:17:31.525Z,19.83
2023-04-14T15:20:04.476Z,19.25
2023-04-14T15:22:32.845Z,20.24
2023-04-14T15:25:01.084Z,20.66
2023-04-14T15:27:29.312Z,20.31
2023-04-14T15:29:57.990Z,19.96
2023-04-14T15:32:27.528Z,20.41
2023-04-14T15:34:56.156Z,19.94
2023-04-14T15:37:26.597Z,19.81
2023-04-14T15:39:54.891Z,19.42
2023-04-14T15:42:23.129Z,19.23
2023-04-14T15:44:51.829Z,18.95
2023-04-14T15:47:20.140Z,18.96
2023-04-14T15:49:49.914Z,19.51
2023-04-14T15:52:20.889Z,19.65
2023-04-14T15:54:50.463Z,20.02
2023-04-14T15:57:19.159Z,20.12
2023-04-14T15:59:47.460Z,20.27
2023-04-14T16:02:16.099Z,20.49
2023-04-14T16:04:44.450Z,20.96
2023-04-14T16:07:12.710Z,20.97
2023-04-14T16:09:40.944Z,21.16
2023-04-14T16:12:10.689Z,21.08
2023-04-14T16:14:38.951Z,20.67
2023-04-14T16:17:07.260Z,20.67
2023-04-14T16:19:35.588Z,20.49
2023-04-14T16:22:03.913Z,21.24
2023-04-14T16:24:32.232Z,20.63
2023-04-14T16:27:01.089Z,20.96
2023-04-14T16:29:30.832Z,20.62
2023-04-14T16:31:59.080Z,20.78
2023-04-14T16:34:27.324Z,20.90
2023-04-14T16:36:55.718Z,21.28
2023-04-14T16:39:23.979Z,21.47
2023-04-14T16:41:52.672Z,21.02
2023-04-14T16:44:21.445Z,19.98
2023-04-14T16:46:51.632Z,19.70
2023-04-14T16:49:20.156Z,20.19
2023-04-14T16:51:48.496Z,20.14
2023-04-14T16:54:17.174Z,20.36
2023-04-14T16:56:45.522Z,19.92
2023-04-14T16:59:13.885Z,19.24
2023-04-14T17:01:42.285Z,19.31
2023-04-14T17:04:12.427Z,19.95
2023-04-14T17:06:40.908Z,18.74
2023-04-14T17:09:09.287Z,18.44
2023-04-14T17:11:37.520Z,17.93
2023-04-14T17:14:06.521Z,18.15
2023-04-14T17:16:35.006Z,18.01
2023-04-14T17:19:04.466Z,17.84
2023-04-14T17:21:34.094Z,18.11
2023-04-14T17:24:03.221Z,18.37
2023-04-14T17:26:31.588Z,18.66
2023-04-14T17:28:59.968Z,18.43
2023-04-14T17:31:28.524Z,18.54
2023-04-14T17:33:57.504Z,18.38
2023-04-14T17:36:25.718Z,19.37
2023-04-14T17:38:55.573Z,18.66
2023-04-14T17:41:24.190Z,18.19
2023-04-14T17:43:55.062Z,18.64
2023-04-14T17:46:33.547Z,18.94
2023-04-14T17:49:02.774Z,18.58
2023-04-14T17:51:32.276Z,18.27
2023-04-14T17:54:02.459Z,18.63
2023-04-14T17:56:31.845Z,18.39
2023-04-14T17:59:00.592Z,18.76
2023-04-14T18:01:28.875Z,19.15
2023-04-14T18:03:58.307Z,19.27
2023-04-14T18:06:26.673Z,19.30
2023-04-14T18:08:55.001Z,19.42
2023-04-14T18:11:24.582Z,19.46
2023-04-14T18:13:53.743Z,19.48
2023-04-14T18:16:22.214Z,19.35
2023-04-14T18:18:50.820Z,18.05
2023-04-14T18:21:19.336Z,18.14
2023-04-14T18:24:47.916Z,18.63
2023-04-14T18:26:37.191Z,18.90
2023-04-14T18:29:05.818Z,19.00
2023-04-14T18:31:34.197Z,19.01
2023-04-14T18:34:04.317Z,19.20
2023-04-14T18:36:33.444Z,19.24
2023-04-14T18:39:02.301Z,18.92
2023-04-14T18:41:30.799Z,19.23
2023-04-14T18:44:00.426Z,18.53
2023-04-14T18:46:28.744Z,17.81
2023-04-14T18:48:57.074Z,18.03
2023-04-14T18:51:25.892Z,17.42
2023-04-14T18:53:54.397Z,17.85
2023-04-14T18:56:22.619Z,16.98
2023-04-14T18:58:51.881Z,17.47
2023-04-14T19:01:21.575Z,16.47
2023-04-14T19:03:49.978Z,17.06
2023-04-14T19:06:18.243Z,16.69
2023-04-14T19:08:46.563Z,15.98
2023-04-14T19:11:14.883Z,16.71
2023-04-14T19:13:43.149Z,16.60
2023-04-14T19:16:12.534Z,16.05
2023-04-14T19:18:42.876Z,16.47
2023-04-14T19:21:11.170Z,16.58
2023-04-14T19:23:40.959Z,16.57
2023-04-14T19:26:11.493Z,16.61
2023-04-14T19:28:42.379Z,16.92
2023-04-14T19:31:11.001Z,17.39
2023-04-14T19:33:39.297Z,17.43
2023-04-14T19:36:14.153Z,18.19
2023-04-14T19:38:42.555Z,17.83
2023-04-14T19:41:10.888Z,17.22
2023-04-14T19:43:39.151Z,16.41
2023-04-14T19:46:09.453Z,16.04
2023-04-14T19:48:38.992Z,15.97
2023-04-14T19:51:07.329Z,15.60
2023-04-14T19:53:37.420Z,16.44
2023-04-14T19:56:07.285Z,16.29
2023-04-14T19:58:36.410Z,16.47
2023-04-14T20:01:05.709Z,16.72
2023-04-14T20:03:34.780Z,17.13
2023-04-14T20:06:03.354Z,15.99
2023-04-14T20:08:32.377Z,17.11
2023-04-14T20:11:02.042Z,16.33
2023-04-14T20:13:32.132Z,16.79
2023-04-14T20:16:01.461Z,17.14
2023-04-14T20:18:30.048Z,16.73
2023-04-14T20:20:59.059Z,17.52
2023-04-14T20:23:27.870Z,17.48
2023-04-14T20:25:56.772Z,17.09
2023-04-14T20:28:26.776Z,17.21
2023-04-14T20:30:56.007Z,17.85
2023-04-14T20:33:24.870Z,17.75
2023-04-14T20:35:54.217Z,18.00
2023-04-14T20:38:23.558Z,17.53
2023-04-14T20:40:52.012Z,18.02
2023-04-14T20:43:20.348Z,18.44
2023-04-14T20:45:52.532Z,18.21
2023-04-14T20:48:20.905Z,17.69
2023-04-14T20:50:50.039Z,16.94
2023-04-14T20:53:22.088Z,16.67
2023-04-14T20:55:51.092Z,16.55
2023-04-14T20:58:19.407Z,16.94
2023-04-14T21:00:47.702Z,17.66
2023-04-14T21:03:17.458Z,17.05
2023-04-14T21:05:46.272Z,16.84
2023-04-14T21:08:14.544Z,17.00
2023-04-14T21:11:16.353Z,16.89
2023-04-14T21:15:24.879Z,17.15
2023-04-14T21:16:19.337Z,17.27
2023-04-14T21:18:48.963Z,16.38
2023-04-14T21:21:17.926Z,16.44
2023-04-14T21:23:46.258Z,16.17
2023-04-14T21:26:14.588Z,16.59
2023-04-14T21:28:43.011Z,16.74
2023-04-14T21:31:11.526Z,16.91
2023-04-14T21:33:41.621Z,16.38
2023-04-14T21:36:11.330Z,17.13
2023-04-14T21:38:39.706Z,17.02
2023-04-14T21:41:09.450Z,16.79
2023-04-14T21:43:38.579Z,16.89
2023-04-14T21:46:06.893Z,17.02
2023-04-14T21:48:35.322Z,16.77
2023-04-14T21:51:04.509Z,16.40
2023-04-14T21:53:36.181Z,16.65
2023-04-14T21:56:10.298Z,16.47
2023-04-14T21:58:40.280Z,16.83
2023-04-14T22:01:09.668Z,17.24
2023-04-14T22:03:40.611Z,16.99
2023-04-14T22:06:09.999Z,16.81
2023-04-14T22:08:40.237Z,17.11
2023-04-14T22:11:08.705Z,16.71
2023-04-14T22:13:37.128Z,16.75
2023-04-14T22:16:05.728Z,15.56
2023-04-14T22:18:35.756Z,16.16
2023-04-14T22:21:04.882Z,16.11
2023-04-14T22:23:33.222Z,16.19
2023-04-14T22:26:03.572Z,16.20
2023-04-14T22:28:31.838Z,15.88
2023-04-14T22:31:00.256Z,15.95
2023-04-14T22:33:28.575Z,15.95
2023-04-14T22:35:56.869Z,15.96
2023-04-14T22:38:25.175Z,15.66
2023-04-14T22:40:53.456Z,15.81
2023-04-14T22:43:23.128Z,15.97
2023-04-14T22:45:51.680Z,15.56
2023-04-14T22:48:19.938Z,15.35
2023-04-14T22:50:48.169Z,15.19
2023-04-14T22:53:16.466Z,15.53
2023-04-14T22:55:45.107Z,14.82
2023-04-14T22:58:16.844Z,15.67
2023-04-14T23:00:46.927Z,15.24
2023-04-14T23:03:15.555Z,15.04
2023-04-14T23:05:44.708Z,15.51
2023-04-14T23:08:13.051Z,15.74
2023-04-14T23:10:41.321Z,15.77
2023-04-14T23:13:09.587Z,15.77
2023-04-14T23:15:37.923Z,15.76
2023-04-14T23:18:07.522Z,15.82
2023-04-14T23:20:36.425Z,15.66
2023-04-14T23:23:05.774Z,15.31
2023-04-14T23:25:34.006Z,15.58
2023-04-14T23:28:02.255Z,15.85
2023-04-14T23:30:30.471Z,15.63
2023-04-14T23:32:58.774Z,15.97
2023-04-14T23:35:29.055Z,16.04
2023-04-14T23:38:02.259Z,15.85
2023-04-14T23:40:31.754Z,15.74
2023-04-14T23:43:00.063Z,15.59
2023-04-14T23:45:28.523Z,15.98
2023-04-14T23:47:58.545Z,15.96
2023-04-14T23:50:58.931Z,15.92
2023-04-14T23:53:16.560Z,15.82
2023-04-14T23:55:44.866Z,15.52
2023-04-14T23:58:13.885Z,15.53
